North Haven, New York
Current Conditions -  °F | °C
As of 7:53 PM on Friday 24 Oct 2014 (Local Time) from KFOK Reporting Station
Overcast Overcast  
Wind Chill: 55°   Ceiling: 4300
Heat Index: 55°   Visibility: 10mi
Dew Point: 45°   Wind: 10mph
Humidity: 69%   Direction: 340°NNW
Pressure: 29.79"   Gusts: NA
Location:  40.9692°N, 72.306°W
Report Text: KFOK 242353Z 34009KT 10SM OVC043 13/07 A2979 RMK AO2 SLP088 T01280072 10139 20117 51008
Loading
Personal Weather Stations






























Interactive Weather Map
Tropical Storm Tracking
New forecast layout! Learn more

10-Day Weather Forecast

Advertisements
Track Severe Weather on mobile